Notice: A non well formed numeric value encountered in /services16/webpages/util/w/t/wt8r5xhl.myutilitysite.com/weatherstationew0157.net/public/weather28/wsFunctions.php on line 312

Warning: A non-numeric value encountered in /services16/webpages/util/w/t/wt8r5xhl.myutilitysite.com/weatherstationew0157.net/public/weather28/wsFunctions.php on line 312

Warning: A non-numeric value encountered in /services16/webpages/util/w/t/wt8r5xhl.myutilitysite.com/weatherstationew0157.net/public/weather28/wsFunctions.php on line 312

Warning: A non-numeric value encountered in /services16/webpages/util/w/t/wt8r5xhl.myutilitysite.com/weatherstationew0157.net/public/weather28/scriptsWL/tagsWL.php on line 167

Warning: A non-numeric value encountered in /services16/webpages/util/w/t/wt8r5xhl.myutilitysite.com/weatherstationew0157.net/public/weather28/scriptsWL/tagsWL.php on line 168

Notice: Undefined index: moonrise in /services16/webpages/util/w/t/wt8r5xhl.myutilitysite.com/weatherstationew0157.net/public/weather28/inc/astronomy.php on line 427

Notice: Undefined index: moonset in /services16/webpages/util/w/t/wt8r5xhl.myutilitysite.com/weatherstationew0157.net/public/weather28/inc/astronomy.php on line 428
Announcements
NOTE: You can customize the way the weather site looks, and select your favorite weather forecast by clicking the "Customize" button on the menu. And then "Save Your Changes"

Nearby METAR Reports

   
KMMU - Bloomingdale, New Jersey 07403
Updated: Apr 20 2021 2:15 am
Clear  
Clear  
   Wind: Calm
Wind: Calm
Temperature: 41°F
Dew Point: 37.4°F
Humidity: 87%
Barometer: 29.89 inHg
Clouds: Clear
Visibility: 10 mi
Cloud details: Clear m
KMMU 200615Z AUTO 00000KT 10SM CLR 05/03 A2989 RMK AO2
KTEB - Clifton, New Jersey 07014
Updated: Apr 20 2021 1:51 am
Clear  
Clear  
   Wind: Calm
Wind: Calm
Temperature: 46.4°F
Dew Point: 41°F
Humidity: 82%
Barometer: 29.88 inHg
Clouds: Clear
Visibility: 10 mi
Cloud details: Clear m
KTEB 200551Z 00000KT 10SM CLR 08/05 A2988 RMK AO2 SLP118 60000 T00830050 10139 20078 51009
KFWN - Franklin, New Jersey 07416
Updated: Apr 20 2021 1:53 am
Clear  
Clear  
   Wind: Calm
Wind: Calm
Temperature: 39.2°F
Dew Point: 37.4°F
Humidity: 93%
Barometer: 29.89 inHg
Clouds: Clear
Visibility: 10 mi
Cloud details: Clear m
KFWN 200553Z AUTO 00000KT 10SM CLR 04/03 A2989 RMK AO2 SLP121 60000 T00390028 10117 20033 53004
KFWN - Hamburg, New Jersey 07419
Updated: Apr 20 2021 1:53 am
Clear  
Clear  
   Wind: Calm
Wind: Calm
Temperature: 39.2°F
Dew Point: 37.4°F
Humidity: 93%
Barometer: 29.89 inHg
Clouds: Clear
Visibility: 10 mi
Cloud details: Clear m
KFWN 200553Z AUTO 00000KT 10SM CLR 04/03 A2989 RMK AO2 SLP121 60000 T00390028 10117 20033 53004
KFWN - Highland Lakes, New Jersey 07422
Updated: Apr 20 2021 1:53 am
Clear  
Clear  
   Wind: Calm
Wind: Calm
Temperature: 39.2°F
Dew Point: 37.4°F
Humidity: 93%
Barometer: 29.89 inHg
Clouds: Clear
Visibility: 10 mi
Cloud details: Clear m
KFWN 200553Z AUTO 00000KT 10SM CLR 04/03 A2989 RMK AO2 SLP121 60000 T00390028 10117 20033 53004
KMMU - Hopatcong,New Jersey 07849
Updated: Apr 20 2021 2:15 am
Clear  
Clear  
   Wind: Calm
Wind: Calm
Temperature: 41°F
Dew Point: 37.4°F
Humidity: 87%
Barometer: 29.89 inHg
Clouds: Clear
Visibility: 10 mi
Cloud details: Clear m
KMMU 200615Z AUTO 00000KT 10SM CLR 05/03 A2989 RMK AO2
KFWN - Jefferson, New Jersey 07438
Updated: Apr 20 2021 1:53 am
Clear  
Clear  
   Wind: Calm
Wind: Calm
Temperature: 39.2°F
Dew Point: 37.4°F
Humidity: 93%
Barometer: 29.89 inHg
Clouds: Clear
Visibility: 10 mi
Cloud details: Clear m
KFWN 200553Z AUTO 00000KT 10SM CLR 04/03 A2989 RMK AO2 SLP121 60000 T00390028 10117 20033 53004
KLDJ - Keansburg, New Jersey 07734
Updated: Apr 20 2021 2:15 am
Clear  
Clear  
   Wind: Calm
Wind: Calm
Temperature: 50°F
Dew Point: 41°F
Humidity: 71%
Barometer: 29.9 inHg
Clouds: Clear
Visibility: 10 mi
Cloud details: Clear m
KLDJ 200615Z AUTO 00000KT 10SM CLR 10/05 A2990 RMK AO2 T01000049
KMJX - Lavallette, New Jersey 08735
Updated: Apr 20 2021 1:56 am
Clear  
Clear  
   Wind: WSW 5.8 mph
Wind: WSW 5.8 mph
Temperature: 39.2°F
Wind Chill: 35.6°F
Dew Point: 37.4°F
Humidity: 93%
Barometer: 29.92 inHg
Clouds: Clear
Visibility: 10 mi
Cloud details: Clear m
KMJX 200556Z AUTO 25005KT 10SM CLR 04/03 A2992 RMK AO2 SLP135 T00390028 10117 20028 51009
KTEB - Little Ferry, New Jersey 07643
Updated: Apr 20 2021 1:51 am
Clear  
Clear  
   Wind: Calm
Wind: Calm
Temperature: 46.4°F
Dew Point: 41°F
Humidity: 82%
Barometer: 29.88 inHg
Clouds: Clear
Visibility: 10 mi
Cloud details: Clear m
KTEB 200551Z 00000KT 10SM CLR 08/05 A2988 RMK AO2 SLP118 60000 T00830050 10139 20078 51009
KTEB - Spring Valley, NY 10977
Updated: Apr 20 2021 1:51 am
Clear  
Clear  
   Wind: Calm
Wind: Calm
Temperature: 46.4°F
Dew Point: 41°F
Humidity: 82%
Barometer: 29.88 inHg
Clouds: Clear
Visibility: 10 mi
Cloud details: Clear m
KTEB 200551Z 00000KT 10SM CLR 08/05 A2988 RMK AO2 SLP118 60000 T00830050 10139 20078 51009
KEWR - Newark, New Jersey 07104
Updated: Apr 20 2021 1:51 am
Few Clouds  
Few Clouds  
   Wind: SW 5.8 mph
Wind: SW 5.8 mph
Temperature: 51.8°F
Dew Point: 41°F
Humidity: 67%
Barometer: 29.89 inHg
Clouds: Few Clouds
Visibility: 10 mi
Cloud details: Few Clouds 7620 m
KEWR 200551Z 22005KT 10SM FEW250 11/05 A2989 RMK AO2 SLP122 T01060050 10144 20106 51010 $
KMMU - Newfoundland, New Jersey 07435
Updated: Apr 20 2021 2:15 am
Clear  
Clear  
   Wind: Calm
Wind: Calm
Temperature: 41°F
Dew Point: 37.4°F
Humidity: 87%
Barometer: 29.89 inHg
Clouds: Clear
Visibility: 10 mi
Cloud details: Clear m
KMMU 200615Z AUTO 00000KT 10SM CLR 05/03 A2989 RMK AO2
KLGA - Yonkers, New York 10710
Updated: Apr 20 2021 1:51 am
Few Clouds  
Few Clouds  
   Wind: WSW 3.5 mph
Wind: WSW 3.5 mph
Temperature: 55.4°F
Dew Point: 39.2°F
Humidity: 55%
Barometer: 29.88 inHg
Clouds: Few Clouds
Visibility: 10 mi
Cloud details: Few Clouds 7620 m
KLGA 200551Z 24003KT 10SM FEW250 13/04 A2988 RMK AO2 SLP118 T01280044 10161 20128 51010
 

Script developed by  Saratoga-weather.org Adapted for the template by  Weerstation Leuven

You find our weather info also at:

Weather Underground

Citizen Weather Observer Program (CWOP)

Equipment we use:

Weather-station
Davis Vantage Pro2

Weather-program
WeatherLink

Weather-server
DELL Optiplex 7020 Mini-Tower

Provider
Deluxe

Davis Vantage Pro2

WeatherLink

DELL Optiplex 7020 Mini-Tower

Deluxe

Weather Station EW0157 Visitors
Weather Station EW0157 Visitors